Terminal Aerodrome Forecast
Issued by NWS

Home | Current Version | Previous Version | Text Only | Print | Product List | Glossary On
Versions: 1 2 3 4 5 6 7 8 9 10 11 12
663
FTUS43 KIND 080520
TAFBMG
TAF
KBMG 080520Z 0806/0906 28007KT P6SM SCT050 BKN100
     FM081200 27007KT P6SM VCSH SCT025 OVC040
     FM081500 28010KT 3SM -SHSN OVC020
     FM081900 28011KT 5SM -SHSN OVC025
     FM090000 29008KT 5SM -SHSN OVC025
      AMD LTD TO CLD VIS AND WIND TIL 081400=

USA.gov is the U.S. government's official web portal to all federal, state and local government web resources and services.